首页
METAR-TAF:

METAR-TAF

机场 :

马斯特里赫特亚琛机场

马斯特里赫特 亚琛, 荷兰

纬度: 50-55N, 经度: 005-47E, 海拔: 114米

当前天气观测

该预报发布于20分钟前的09:55 UTC
风速8节,风向,在东南南转西南之间变化
温度 10°C
湿度 71%
气压 1005 hPa
能见度10公里或以上

METAR: EHBK 220955Z AUTO 17008KT 140V200 9999 NSC 10/05 Q1005 NOSIG

时间: 11:15 (10:15 UTC)

预报

该预报发布于5小时和3分钟前的05:12 UTC
预报有效从22日的 06点(UTC)到 23日的 12点(UTC)
风速8节,风向南转南东
能见度10公里或以上
1500米以下无云,无积雨云
成为
从 22日的 14点(UTC)到 22日的 17点(UTC)
风速10节,风向

TAF: EHBK 220512Z 2206/2312 15008KT CAVOK BECMG 2214/2217 10010KT

超过4000个机场的气象观测和天气预报(METAR&TAF报告)。

可查询的气象台以黄色和红色小点在地图上表示。

将鼠标移到小点上方,可查看气象台名称。

然后点击查看天气观测和预报。

如需切换地图:点击带黑十字的绿色按钮放大地图;点击带横线的绿色按钮缩小地图;或者点击绿色箭头查看邻近地区的地图。


METAR-TAF: